Time;durP1;ratioP1;P1;durP2;ratioP2;P2;SDS_P1;SDS_P2;PMS_P1;PMS_P2;Temp;Humidity;BMP_temperature;BMP_pressure;BME280_temperature;BME280_humidity;BME280_pressure;Samples;Min_cycle;Max_cycle;Signal;HPM_P1;HPM_P2
2021/09/10 00:02:01;;;;;;;8.77;5.32;;;20.40;99.90;;;;;;5074310;28;20556;-74
2021/09/10 00:04:26;;;;;;;8.85;5.53;;;20.40;99.90;;;;;;5074643;28;20039;-74
2021/09/10 00:06:52;;;;;;;8.10;5.43;;;20.40;99.90;;;;;;5089840;28;20113;-74
2021/09/10 00:09:19;;;;;;;7.72;5.47;;;20.40;99.90;;;;;;5073192;28;20063;-74
2021/09/10 00:11:45;;;;;;;8.57;5.53;;;20.40;99.90;;;;;;5089695;28;20038;-74
2021/09/10 00:14:11;;;;;;;7.20;5.30;;;20.40;99.90;;;;;;5074505;28;20027;-74
2021/09/10 00:16:37;;;;;;;8.38;5.32;;;20.40;99.90;;;;;;5074065;28;20053;-74
2021/09/10 00:19:04;;;;;;;9.07;5.50;;;20.40;99.90;;;;;;5089665;28;20119;-74
2021/09/10 00:21:29;;;;;;;9.35;5.32;;;20.30;99.90;;;;;;5089622;28;20032;-74
2021/09/10 00:23:55;;;;;;;9.50;5.72;;;20.40;99.90;;;;;;5073950;28;20473;-74
2021/09/10 00:26:21;;;;;;;11.90;5.95;;;20.30;99.90;;;;;;5074362;28;20048;-74
2021/09/10 00:28:47;;;;;;;9.50;5.60;;;20.30;99.90;;;;;;5073881;28;20054;-73
2021/09/10 00:31:13;;;;;;;8.43;6.00;;;20.30;99.90;;;;;;5073605;28;20037;-73
2021/09/10 00:33:38;;;;;;;8.20;5.50;;;20.20;99.90;;;;;;5073838;28;20024;-74
2021/09/10 00:36:04;;;;;;;8.45;5.40;;;20.20;99.90;;;;;;5089278;28;20029;-74
2021/09/10 00:38:30;;;;;;;8.45;5.60;;;20.20;99.90;;;;;;5073839;28;20029;-74
2021/09/10 00:40:58;;;;;;;7.97;5.10;;;20.20;99.90;;;;;;5073550;28;20550;-74
2021/09/10 00:43:23;;;;;;;8.35;5.53;;;20.10;99.90;;;;;;5089513;28;20032;-74
2021/09/10 00:45:49;;;;;;;10.10;5.50;;;20.20;99.90;;;;;;5072395;28;20039;-74
2021/09/10 00:48:19;;;;;;;7.78;5.63;;;20.20;99.90;;;;;;5073614;28;20024;-74
2021/09/10 00:50:47;;;;;;;9.63;5.63;;;20.10;99.90;;;;;;5073875;28;20032;-74
2021/09/10 00:53:13;;;;;;;9.02;5.72;;;20.10;99.90;;;;;;5073798;28;20483;-74
2021/09/10 00:55:41;;;;;;;10.20;5.80;;;20.10;99.90;;;;;;5089048;28;20032;-74
2021/09/10 00:58:07;;;;;;;10.75;5.55;;;20.10;99.90;;;;;;5088785;28;20121;-74
2021/09/10 01:00:33;;;;;;;10.65;5.85;;;20.10;99.90;;;;;;5089147;28;20112;-73
2021/09/10 01:02:59;;;;;;;7.72;5.43;;;20.00;99.90;;;;;;5073386;28;20028;-74
2021/09/10 01:05:25;;;;;;;9.25;5.53;;;20.10;99.90;;;;;;5088929;28;20036;-74
2021/09/10 01:07:51;;;;;;;8.50;5.38;;;20.10;99.90;;;;;;5072955;28;20032;-73
2021/09/10 01:10:18;;;;;;;10.55;5.78;;;20.10;99.90;;;;;;5088887;28;20474;-74
2021/09/10 01:12:45;;;;;;;10.13;5.88;;;20.00;99.90;;;;;;5071870;28;20453;-74
2021/09/10 01:15:11;;;;;;;9.68;5.57;;;20.10;99.90;;;;;;5072898;28;20405;-73
2021/09/10 01:17:37;;;;;;;7.60;6.00;;;20.00;99.90;;;;;;5072995;28;20032;-74
2021/09/10 01:20:06;;;;;;;10.50;6.05;;;20.00;99.90;;;;;;5072980;28;20036;-73
2021/09/10 01:22:33;;;;;;;8.35;5.65;;;20.00;99.90;;;;;;5088734;28;20497;-74
2021/09/10 01:25:13;;;;;;;10.32;6.10;;;20.10;99.90;;;;;;5088191;28;20025;-74
2021/09/10 01:27:55;;;;;;;9.70;6.35;;;20.00;99.90;;;;;;5088603;28;20037;-74
2021/09/10 01:30:31;;;;;;;12.43;6.63;;;20.00;99.90;;;;;;5073065;28;20040;-74
2021/09/10 01:33:00;;;;;;;9.50;6.90;;;20.00;99.90;;;;;;5072498;28;20055;-74
2021/09/10 01:35:26;;;;;;;9.23;6.50;;;20.00;99.90;;;;;;5072611;28;20126;-74
2021/09/10 01:37:54;;;;;;;9.10;6.18;;;20.00;99.90;;;;;;5088506;28;20039;-74
2021/09/10 01:40:20;;;;;;;11.27;6.57;;;19.90;99.90;;;;;;5072435;28;20481;-73
2021/09/10 01:42:46;;;;;;;9.90;6.00;;;19.90;99.90;;;;;;5072389;28;20115;-74
2021/09/10 01:45:13;;;;;;;9.55;6.68;;;19.90;99.90;;;;;;5072660;28;20442;-74
2021/09/10 01:47:39;;;;;;;7.13;5.68;;;19.90;99.90;;;;;;5088007;28;20025;-74
2021/09/10 01:50:12;;;;;;;11.43;6.35;;;19.90;99.90;;;;;;5072132;28;20130;-73
2021/09/10 01:52:38;;;;;;;9.45;6.25;;;19.90;99.90;;;;;;5072419;28;20067;-73
2021/09/10 01:55:06;;;;;;;10.45;6.25;;;19.90;99.90;;;;;;5072469;28;20020;-73
2021/09/10 01:57:32;;;;;;;9.52;5.95;;;19.80;99.90;;;;;;5087310;28;20059;-74
2021/09/10 01:59:58;;;;;;;8.73;5.88;;;19.80;99.90;;;;;;5072527;28;20067;-73
2021/09/10 02:02:23;;;;;;;9.85;5.78;;;19.80;99.90;;;;;;5087926;28;20384;-73
2021/09/10 02:04:49;;;;;;;10.18;5.50;;;19.80;99.90;;;;;;5087756;28;20025;-73
2021/09/10 02:07:15;;;;;;;8.77;6.20;;;19.70;99.90;;;;;;5087924;28;20098;-73
2021/09/10 02:09:41;;;;;;;8.48;6.25;;;19.70;99.90;;;;;;5087829;28;20616;-73
2021/09/10 02:12:07;;;;;;;11.40;6.90;;;19.70;99.90;;;;;;5071986;28;20052;-73
2021/09/10 02:14:34;;;;;;;8.48;6.18;;;19.70;99.90;;;;;;5087934;28;20032;-73
2021/09/10 02:17:01;;;;;;;10.05;6.10;;;19.70;99.90;;;;;;5071782;28;20055;-73
2021/09/10 02:19:27;;;;;;;9.93;6.25;;;19.70;99.90;;;;;;5072373;28;20033;-73
2021/09/10 02:21:53;;;;;;;8.77;5.93;;;19.60;99.90;;;;;;5087338;28;20452;-74
2021/09/10 02:24:19;;;;;;;7.68;6.03;;;19.70;99.90;;;;;;5072249;28;20065;-73
2021/09/10 02:26:45;;;;;;;11.13;6.57;;;19.60;99.90;;;;;;5071983;28;20127;-73
2021/09/10 02:29:11;;;;;;;10.88;6.75;;;19.60;99.90;;;;;;5072093;28;20021;-73
2021/09/10 02:31:37;;;;;;;11.00;6.57;;;19.60;99.90;;;;;;5072327;28;20032;-73
2021/09/10 02:34:03;;;;;;;10.63;6.30;;;19.50;99.90;;;;;;5071639;28;20032;-73
2021/09/10 02:36:29;;;;;;;11.30;7.00;;;19.40;99.90;;;;;;5071920;28;20056;-73
2021/09/10 02:38:55;;;;;;;8.25;5.97;;;19.40;99.90;;;;;;5087445;28;20039;-74
2021/09/10 02:41:21;;;;;;;11.25;6.32;;;19.40;99.90;;;;;;5087370;28;20029;-74
2021/09/10 02:43:47;;;;;;;8.55;6.00;;;19.30;99.90;;;;;;5071819;28;20032;-74
2021/09/10 02:46:12;;;;;;;9.40;6.53;;;19.30;99.90;;;;;;5072041;28;20099;-74
2021/09/10 02:48:38;;;;;;;12.77;7.35;;;19.20;99.90;;;;;;5071808;28;20082;-74
2021/09/10 02:51:04;;;;;;;7.82;5.95;;;19.30;99.90;;;;;;5071470;28;20473;-74
2021/09/10 02:53:30;;;;;;;8.77;6.75;;;19.40;99.90;;;;;;5087338;28;20045;-74
2021/09/10 02:56:00;;;;;;;8.38;6.32;;;19.30;99.90;;;;;;5087503;28;20435;-74
2021/09/10 02:58:27;;;;;;;15.95;7.22;;;19.20;99.90;;;;;;5071714;28;20142;-74
2021/09/10 03:00:53;;;;;;;10.45;6.35;;;19.10;99.90;;;;;;5070302;28;20040;-74
2021/09/10 03:03:18;;;;;;;8.70;6.63;;;19.00;99.90;;;;;;5071853;28;20123;-74
2021/09/10 03:05:44;;;;;;;12.75;7.55;;;19.00;99.90;;;;;;5087355;28;20021;-74
2021/09/10 03:08:10;;;;;;;10.95;7.13;;;19.00;99.90;;;;;;5071423;28;20469;-74
2021/09/10 03:10:36;;;;;;;10.73;6.35;;;19.00;99.90;;;;;;5074323;28;20037;-74
2021/09/10 03:13:01;;;;;;;10.50;7.15;;;19.00;99.90;;;;;;5091106;28;20028;-74
2021/09/10 03:15:27;;;;;;;11.20;6.90;;;19.00;99.90;;;;;;5075115;28;20497;-74
2021/09/10 03:17:53;;;;;;;11.10;6.95;;;19.00;99.90;;;;;;5075301;28;20512;-74
2021/09/10 03:20:18;;;;;;;11.68;7.53;;;19.00;99.90;;;;;;5075247;28;20074;-74
2021/09/10 03:22:44;;;;;;;10.50;7.28;;;19.00;99.90;;;;;;5073949;28;20073;-74
2021/09/10 03:25:10;;;;;;;10.32;7.80;;;19.00;99.90;;;;;;5074825;28;20020;-74
2021/09/10 03:27:36;;;;;;;8.70;6.70;;;18.90;99.90;;;;;;5075366;28;20119;-74
2021/09/10 03:30:12;;;;;;;11.63;6.82;;;18.90;99.90;;;;;;5090445;28;20152;-74
2021/09/10 03:32:41;;;;;;;9.63;6.97;;;18.80;99.90;;;;;;5090343;28;20374;-73
2021/09/10 03:35:08;;;;;;;10.27;6.60;;;18.90;99.90;;;;;;5074832;28;20029;-74
2021/09/10 03:37:35;;;;;;;10.10;7.60;;;18.80;99.90;;;;;;5090472;28;20120;-74
2021/09/10 03:40:02;;;;;;;10.65;7.38;;;18.80;99.90;;;;;;5090477;28;20151;-74
2021/09/10 03:42:28;;;;;;;11.38;8.20;;;18.80;99.90;;;;;;5075062;28;20056;-73
2021/09/10 03:44:53;;;;;;;11.77;7.63;;;18.60;99.90;;;;;;5073712;28;20473;-73
2021/09/10 03:47:19;;;;;;;12.13;8.05;;;18.60;99.90;;;;;;5076292;28;20033;-72
2021/09/10 03:49:45;;;;;;;11.15;8.68;;;18.70;99.90;;;;;;5083773;28;20031;-71
2021/09/10 03:52:11;;;;;;;11.43;8.38;;;18.60;99.90;;;;;;5086745;28;20036;-68
2021/09/10 03:54:37;;;;;;;12.88;8.10;;;18.60;99.90;;;;;;5094186;28;20054;-69
2021/09/10 03:57:03;;;;;;;13.88;8.35;;;18.60;99.90;;;;;;5094763;28;20043;-72
2021/09/10 03:59:29;;;;;;;12.70;8.75;;;18.60;99.90;;;;;;5094071;28;20085;-73
2021/09/10 04:01:54;;;;;;;11.77;8.27;;;18.60;99.90;;;;;;5094436;28;20036;-74
2021/09/10 04:04:20;;;;;;;11.77;8.85;;;18.60;99.90;;;;;;5093311;28;20024;-73
2021/09/10 04:06:46;;;;;;;11.98;8.95;;;18.60;99.90;;;;;;5094613;28;20032;-73
2021/09/10 04:09:12;;;;;;;12.07;8.65;;;18.60;99.90;;;;;;5094559;28;20086;-73
2021/09/10 04:11:38;;;;;;;12.35;9.18;;;18.60;99.90;;;;;;5094556;28;20444;-76
2021/09/10 04:14:04;;;;;;;12.90;9.00;;;18.60;99.90;;;;;;5094424;28;20101;-74
2021/09/10 04:16:30;;;;;;;12.32;8.90;;;18.60;99.90;;;;;;5093229;28;20492;-73
2021/09/10 04:18:56;;;;;;;10.70;8.80;;;18.50;99.90;;;;;;5074014;28;20063;-73
2021/09/10 04:21:21;;;;;;;10.80;8.65;;;18.60;99.90;;;;;;5042193;28;20515;-73
2021/09/10 04:23:47;;;;;;;11.13;9.13;;;18.60;99.90;;;;;;5072960;28;20029;-73
2021/09/10 04:26:13;;;;;;;16.33;9.30;;;18.60;99.90;;;;;;5073813;28;20111;-74
2021/09/10 04:28:39;;;;;;;11.80;8.70;;;18.60;99.90;;;;;;5074242;28;20036;-74
2021/09/10 04:31:04;;;;;;;11.52;8.40;;;18.60;99.90;;;;;;5073912;28;20060;-72
2021/09/10 04:33:30;;;;;;;13.15;8.98;;;18.50;99.90;;;;;;5073642;28;20032;-73
2021/09/10 04:35:56;;;;;;;12.57;8.82;;;18.60;99.90;;;;;;5074333;28;20058;-75
2021/09/10 04:38:21;;;;;;;11.40;8.85;;;18.50;99.90;;;;;;5073959;28;20048;-74
2021/09/10 04:40:47;;;;;;;12.65;9.18;;;18.60;99.90;;;;;;5072743;28;20493;-74
2021/09/10 04:43:13;;;;;;;15.98;9.95;;;18.50;99.90;;;;;;5073565;28;20044;-74
2021/09/10 04:45:39;;;;;;;14.98;10.45;;;18.60;99.90;;;;;;5073833;28;20032;-73
2021/09/10 04:48:05;;;;;;;15.32;9.55;;;18.70;99.90;;;;;;5086307;28;20541;-74
2021/09/10 04:50:31;;;;;;;12.93;9.18;;;18.60;99.90;;;;;;5092343;28;20115;-73
2021/09/10 04:52:56;;;;;;;13.05;8.98;;;18.50;99.90;;;;;;5093692;28;20114;-72
2021/09/10 04:55:22;;;;;;;14.20;9.20;;;18.50;99.90;;;;;;5093770;28;20047;-72
2021/09/10 04:57:48;;;;;;;12.40;9.10;;;18.50;99.90;;;;;;5092397;28;20437;-73
2021/09/10 05:00:14;;;;;;;13.65;9.00;;;18.50;99.90;;;;;;5093439;28;20032;-73
2021/09/10 05:02:43;;;;;;;12.25;9.18;;;18.40;99.90;;;;;;5092132;28;20032;-72
2021/09/10 05:05:10;;;;;;;13.88;9.07;;;18.50;99.90;;;;;;5093315;28;20028;-72
2021/09/10 05:07:35;;;;;;;13.80;10.43;;;18.50;99.90;;;;;;5093356;28;20438;-72
2021/09/10 05:10:01;;;;;;;14.95;10.00;;;18.50;99.90;;;;;;5093202;28;20119;-75
2021/09/10 05:12:27;;;;;;;22.48;10.75;;;18.50;99.90;;;;;;5093294;28;20097;-73
2021/09/10 05:14:52;;;;;;;13.63;9.88;;;18.50;99.90;;;;;;5091158;28;20036;-72
2021/09/10 05:17:19;;;;;;;13.00;9.25;;;18.40;99.90;;;;;;5083391;28;20028;-73
2021/09/10 05:19:46;;;;;;;13.70;9.52;;;18.50;99.90;;;;;;5072964;28;20134;-75
2021/09/10 05:22:12;;;;;;;11.63;9.20;;;18.50;99.90;;;;;;5071545;28;20039;-72
2021/09/10 05:24:39;;;;;;;11.20;8.65;;;18.50;99.90;;;;;;5072696;28;20371;-71
2021/09/10 05:27:06;;;;;;;11.60;9.18;;;18.60;99.90;;;;;;5070212;28;20089;-72
2021/09/10 05:29:32;;;;;;;13.27;9.85;;;18.70;99.90;;;;;;5070760;28;20064;-72
2021/09/10 05:31:57;;;;;;;12.55;8.77;;;18.70;99.90;;;;;;5072233;28;20040;-72
2021/09/10 05:34:23;;;;;;;12.40;8.45;;;18.70;99.90;;;;;;5071565;28;20029;-72
2021/09/10 05:36:49;;;;;;;13.73;8.70;;;18.70;99.90;;;;;;5072452;28;20106;-72
2021/09/10 05:39:15;;;;;;;12.00;8.43;;;18.70;99.90;;;;;;5072773;28;20025;-72
2021/09/10 05:41:42;;;;;;;12.15;8.55;;;18.70;99.90;;;;;;5072577;28;20037;-72
2021/09/10 05:44:08;;;;;;;12.85;8.82;;;18.70;99.90;;;;;;5072684;28;20028;-72
2021/09/10 05:46:34;;;;;;;13.25;8.95;;;18.70;99.90;;;;;;5077478;28;20390;-72
2021/09/10 05:49:00;;;;;;;14.80;8.82;;;18.80;99.90;;;;;;5092776;28;20080;-72
2021/09/10 05:51:25;;;;;;;11.73;8.18;;;19.00;99.90;;;;;;5092477;28;20036;-72
2021/09/10 05:53:52;;;;;;;11.35;7.78;;;19.00;99.90;;;;;;5092670;28;20039;-72
2021/09/10 05:56:17;;;;;;;13.25;8.15;;;19.00;99.90;;;;;;5091298;28;20024;-72
2021/09/10 05:58:43;;;;;;;11.70;8.35;;;19.10;99.90;;;;;;5092468;28;20038;-71
2021/09/10 06:01:09;;;;;;;10.32;7.95;;;19.10;99.90;;;;;;5090364;28;20032;-71
2021/09/10 06:03:34;;;;;;;10.50;8.05;;;19.10;99.90;;;;;;5092058;28;20472;-71
2021/09/10 06:06:00;;;;;;;10.93;7.90;;;19.00;99.90;;;;;;5091213;28;20345;-71
2021/09/10 06:08:26;;;;;;;14.02;7.60;;;19.00;99.90;;;;;;5092561;28;20062;-71
2021/09/10 06:10:51;;;;;;;13.15;8.00;;;19.00;99.90;;;;;;5092433;28;20438;-73
2021/09/10 06:13:17;;;;;;;14.30;8.43;;;19.10;99.90;;;;;;5090875;28;20035;-70
2021/09/10 06:15:43;;;;;;;14.75;8.00;;;19.10;99.90;;;;;;5090743;28;20074;-69
2021/09/10 06:18:09;;;;;;;14.55;8.00;;;19.20;99.90;;;;;;5092032;28;20124;-70
2021/09/10 06:20:35;;;;;;;18.95;8.52;;;19.20;99.90;;;;;;5092171;28;20388;-69
2021/09/10 06:23:01;;;;;;;14.52;8.57;;;19.30;99.90;;;;;;5092183;28;20024;-70
2021/09/10 06:25:27;;;;;;;13.30;8.18;;;19.30;99.90;;;;;;5091048;28;20034;-69
2021/09/10 06:27:53;;;;;;;13.88;8.90;;;19.30;99.90;;;;;;5092533;28;20048;-70
2021/09/10 06:30:20;;;;;;;12.63;8.18;;;19.30;99.90;;;;;;5092286;28;20036;-71
2021/09/10 06:32:46;;;;;;;13.38;8.20;;;19.40;99.90;;;;;;5090796;28;20499;-68
2021/09/10 06:35:12;;;;;;;12.35;7.65;;;19.40;99.90;;;;;;5074010;28;20085;-71
2021/09/10 06:37:38;;;;;;;13.18;8.10;;;19.50;99.90;;;;;;5074291;28;20027;-71
2021/09/10 06:40:05;;;;;;;10.75;8.10;;;19.60;99.90;;;;;;5090944;28;20103;-70
2021/09/10 06:42:31;;;;;;;11.20;8.40;;;19.60;99.90;;;;;;5083692;28;20037;-69
2021/09/10 06:44:57;;;;;;;20.42;8.25;;;19.60;99.90;;;;;;5084305;28;20507;-70
2021/09/10 06:47:23;;;;;;;16.20;8.13;;;19.60;99.90;;;;;;5075931;28;20040;-70
2021/09/10 06:49:49;;;;;;;12.18;8.40;;;19.60;99.90;;;;;;5075851;28;20129;-70
2021/09/10 06:52:16;;;;;;;12.73;8.70;;;19.60;99.90;;;;;;5075574;28;20033;-70
2021/09/10 06:54:42;;;;;;;10.43;8.18;;;19.60;99.90;;;;;;5075660;28;20033;-73
2021/09/10 06:57:07;;;;;;;10.80;7.80;;;19.70;99.90;;;;;;5057516;28;20028;-69
2021/09/10 06:59:33;;;;;;;12.65;8.18;;;19.70;99.90;;;;;;5074421;28;20037;-69
2021/09/10 07:01:59;;;;;;;9.60;7.43;;;19.90;99.90;;;;;;5074506;28;20025;-70
2021/09/10 07:04:25;;;;;;;15.15;8.52;;;20.00;99.90;;;;;;5074018;28;20035;-70
2021/09/10 07:06:50;;;;;;;14.98;8.18;;;20.10;99.90;;;;;;5075334;28;20070;-71
2021/09/10 07:09:16;;;;;;;12.02;7.88;;;20.00;99.90;;;;;;5075492;28;20039;-70
2021/09/10 07:11:42;;;;;;;12.15;8.60;;;20.10;99.90;;;;;;5073907;28;20493;-71
2021/09/10 07:14:08;;;;;;;11.73;7.88;;;20.30;99.90;;;;;;5073876;28;20393;-70
2021/09/10 07:16:34;;;;;;;15.70;8.27;;;20.30;99.90;;;;;;5075029;28;20052;-70
2021/09/10 07:19:02;;;;;;;15.52;8.05;;;20.40;99.90;;;;;;5074981;28;20112;-70
2021/09/10 07:21:28;;;;;;;10.70;7.97;;;20.30;99.90;;;;;;5073055;28;20041;-70
2021/09/10 07:23:53;;;;;;;12.98;7.68;;;20.40;99.90;;;;;;5073870;28;20430;-70
2021/09/10 07:26:20;;;;;;;11.38;7.13;;;20.30;99.90;;;;;;5074653;28;20548;-70
2021/09/10 07:28:46;;;;;;;12.43;8.98;;;20.50;99.90;;;;;;5075171;28;20064;-71
2021/09/10 07:31:12;;;;;;;13.52;8.15;;;20.50;99.90;;;;;;5074995;28;20064;-71
2021/09/10 07:33:41;;;;;;;10.57;8.50;;;20.50;99.90;;;;;;5075210;28;20028;-71
2021/09/10 07:36:07;;;;;;;13.15;7.82;;;20.50;99.90;;;;;;5074079;28;20021;-71
2021/09/10 07:38:35;;;;;;;14.68;9.30;;;20.60;99.90;;;;;;5073720;28;20037;-71
2021/09/10 07:41:02;;;;;;;12.45;7.75;;;20.60;99.90;;;;;;5074803;28;20357;-71
2021/09/10 07:43:28;;;;;;;11.95;8.88;;;20.80;99.90;;;;;;5074851;28;20028;-71
2021/09/10 07:45:54;;;;;;;12.88;8.60;;;20.90;99.90;;;;;;5057045;28;20112;-72
2021/09/10 07:48:20;;;;;;;13.20;8.07;;;21.00;99.90;;;;;;5056411;28;20166;-70
2021/09/10 07:50:45;;;;;;;10.18;7.43;;;21.20;99.90;;;;;;5077539;28;20045;-72
2021/09/10 07:53:11;;;;;;;19.50;7.60;;;21.40;99.90;;;;;;5093410;28;20460;-72
2021/09/10 07:55:38;;;;;;;11.63;6.20;;;21.50;99.90;;;;;;5092781;28;20040;-71
2021/09/10 07:58:04;;;;;;;13.35;6.63;;;21.60;99.90;;;;;;5093519;28;20393;-71
2021/09/10 08:00:30;;;;;;;9.15;6.43;;;21.60;99.90;;;;;;5093641;28;20394;-71
2021/09/10 08:02:56;;;;;;;12.20;6.43;;;21.60;99.90;;;;;;5094430;28;20032;-71
2021/09/10 08:05:22;;;;;;;10.23;6.05;;;21.80;99.90;;;;;;5094546;28;20534;-71
2021/09/10 08:07:47;;;;;;;10.38;6.18;;;21.90;99.90;;;;;;5094772;28;20028;-71
2021/09/10 08:10:15;;;;;;;11.13;6.70;;;22.00;99.90;;;;;;5092828;28;20154;-71
2021/09/10 08:12:45;;;;;;;9.20;5.90;;;22.10;99.90;;;;;;5094430;28;20036;-71
2021/09/10 08:15:13;;;;;;;6.03;4.65;;;22.20;99.90;;;;;;5094300;28;20123;-70
2021/09/10 08:17:39;;;;;;;8.77;6.18;;;22.30;99.90;;;;;;5094359;28;20064;-71
2021/09/10 08:20:08;;;;;;;7.15;5.32;;;22.10;99.90;;;;;;5093265;28;20044;-71
2021/09/10 08:22:35;;;;;;;10.13;6.13;;;22.30;99.90;;;;;;5094263;28;20418;-70
2021/09/10 08:25:07;;;;;;;7.80;5.22;;;22.40;99.90;;;;;;5092885;28;20473;-70
2021/09/10 08:27:33;;;;;;;7.10;5.40;;;22.50;99.90;;;;;;5094310;28;20035;-70
2021/09/10 08:30:00;;;;;;;10.90;6.00;;;22.30;99.90;;;;;;5094453;28;20059;-70
2021/09/10 08:32:26;;;;;;;11.07;5.50;;;22.20;99.90;;;;;;5093413;28;20123;-71
2021/09/10 08:34:53;;;;;;;8.43;5.60;;;22.30;99.90;;;;;;5092860;28;20084;-70
2021/09/10 08:37:19;;;;;;;8.52;5.82;;;22.40;99.90;;;;;;5094028;28;20089;-71
2021/09/10 08:39:45;;;;;;;10.73;5.57;;;22.60;99.90;;;;;;5094257;28;20036;-71
2021/09/10 08:42:11;;;;;;;8.05;5.50;;;22.70;99.90;;;;;;5075870;28;20548;-72
2021/09/10 08:44:43;;;;;;;13.20;6.22;;;22.70;99.90;;;;;;5092436;28;20024;-71
2021/09/10 08:47:11;;;;;;;9.10;6.32;;;22.60;99.90;;;;;;5094208;28;20075;-72
2021/09/10 08:49:39;;;;;;;8.57;5.70;;;22.70;99.90;;;;;;5093799;28;20024;-71
2021/09/10 08:52:06;;;;;;;11.18;5.93;;;22.70;99.90;;;;;;5092297;28;20042;-71
2021/09/10 08:54:32;;;;;;;9.48;5.80;;;22.70;99.90;;;;;;5093716;28;20070;-71
2021/09/10 08:56:59;;;;;;;8.40;6.05;;;22.70;99.90;;;;;;5093687;28;20032;-71
2021/09/10 08:59:26;;;;;;;8.02;5.20;;;22.60;99.90;;;;;;5092191;28;20036;-71
2021/09/10 09:01:55;;;;;;;9.45;5.55;;;22.70;99.90;;;;;;5075355;28;20028;-71
2021/09/10 09:04:23;;;;;;;8.80;4.93;;;22.80;99.90;;;;;;5075517;28;20024;-70
2021/09/10 09:06:53;;;;;;;8.25;4.82;;;22.90;99.90;;;;;;5092470;28;20036;-72
2021/09/10 09:09:46;;;;;;;6.53;4.82;;;23.00;99.90;;;;;;5075062;28;20044;-71
2021/09/10 09:12:29;;;;;;;10.10;5.25;;;22.90;99.90;;;;;;5093196;28;20044;-72
2021/09/10 09:15:05;;;;;;;10.75;5.25;;;22.80;99.90;;;;;;5092827;28;20084;-71
2021/09/10 09:17:38;;;;;;;8.48;4.78;;;22.70;99.90;;;;;;5092009;28;20120;-72
2021/09/10 09:20:21;;;;;;;9.50;5.43;;;22.90;99.90;;;;;;5092963;28;20401;-72
2021/09/10 09:23:11;;;;;;;8.10;5.40;;;22.90;99.90;;;;;;5091663;28;20028;-71
2021/09/10 09:25:40;;;;;;;8.55;5.35;;;22.80;99.90;;;;;;5092837;28;20481;-71
2021/09/10 09:28:26;;;;;;;8.02;5.35;;;23.00;99.90;;;;;;5092810;28;20161;-71
2021/09/10 09:31:01;;;;;;;7.22;5.10;;;23.10;99.90;;;;;;5091941;28;20507;-71
2021/09/10 09:33:41;;;;;;;7.30;4.80;;;23.30;99.90;;;;;;5092590;28;20047;-72
2021/09/10 09:36:19;;;;;;;7.43;5.55;;;23.10;99.90;;;;;;5091670;28;20111;-71
2021/09/10 09:38:45;;;;;;;9.43;5.03;;;23.10;99.90;;;;;;5093081;28;20032;-71
2021/09/10 09:41:18;;;;;;;7.43;5.00;;;23.30;99.90;;;;;;5092680;28;20051;-71
2021/09/10 09:43:50;;;;;;;8.00;5.00;;;23.30;99.90;;;;;;5092657;28;20089;-71
2021/09/10 09:46:21;;;;;;;9.15;5.68;;;23.40;99.90;;;;;;5092880;28;20035;-72
2021/09/10 09:48:51;;;;;;;6.35;4.63;;;23.40;99.90;;;;;;5091413;28;20028;-72
2021/09/10 09:51:21;;;;;;;6.53;4.75;;;23.80;99.90;;;;;;5092394;28;20040;-72
2021/09/10 09:53:48;;;;;;;7.67;4.70;;;23.90;99.90;;;;;;5092549;28;20142;-72
2021/09/10 09:56:15;;;;;;;7.93;5.57;;;24.10;99.90;;;;;;5091376;28;20036;-73
2021/09/10 09:58:45;;;;;;;8.55;4.95;;;24.20;99.90;;;;;;5091398;28;20186;-73
2021/09/10 10:01:11;;;;;;;7.65;4.68;;;24.00;99.90;;;;;;5092454;28;20504;-72
2021/09/10 10:03:40;;;;;;;6.85;4.30;;;24.10;99.90;;;;;;5091719;28;20036;-78
2021/09/10 10:06:23;;;;;;;7.05;4.25;;;23.90;99.90;;;;;;5088442;28;20488;-74
2021/09/10 10:09:07;;;;;;;8.65;4.45;;;23.80;99.90;;;;;;5091216;28;20028;-72
2021/09/10 10:11:44;;;;;;;7.93;4.25;;;23.80;99.90;;;;;;5090922;28;20545;-73
2021/09/10 10:14:15;;;;;;;7.60;4.32;;;23.90;99.90;;;;;;5092438;28;20607;-73
2021/09/10 10:16:43;;;;;;;5.68;4.00;;;23.80;99.90;;;;;;5091817;28;20071;-74
2021/09/10 10:19:21;;;;;;;5.75;4.10;;;23.60;99.90;;;;;;5091898;28;20020;-73
2021/09/10 10:21:53;;;;;;;6.45;4.10;;;23.60;99.90;;;;;;5092095;28;20384;-74
2021/09/10 10:24:57;;;;;;;5.80;4.40;;;23.70;99.90;;;;;;5092294;28;20032;-72
2021/09/10 10:27:40;;;;;;;8.73;4.60;;;23.70;99.90;;;;;;5029623;28;20145;-74
2021/09/10 10:30:35;;;;;;;6.88;4.30;;;23.70;99.90;;;;;;5087770;28;20047;-72
2021/09/10 10:33:20;;;;;;;6.57;4.35;;;23.80;99.90;;;;;;5091907;28;20028;-77
2021/09/10 10:35:46;;;;;;;8.38;3.90;;;23.80;99.90;;;;;;5090709;28;20111;-76
2021/09/10 10:38:13;;;;;;;6.15;3.33;;;23.80;99.90;;;;;;5091954;28;20114;-75
2021/09/10 10:40:51;;;;;;;5.07;3.33;;;23.80;99.90;;;;;;5091839;28;20032;-71
2021/09/10 10:43:20;;;;;;;5.63;3.92;;;24.20;99.90;;;;;;5091909;28;20073;-71
2021/09/10 10:45:46;;;;;;;5.93;3.83;;;24.20;99.90;;;;;;5091958;28;20044;-71
2021/09/10 10:48:32;;;;;;;7.50;3.97;;;24.40;99.90;;;;;;5091638;28;20036;-71
2021/09/10 10:51:13;;;;;;;5.38;4.25;;;24.50;99.90;;;;;;5091808;28;20093;-71
2021/09/10 10:53:45;;;;;;;6.38;3.97;;;24.40;99.90;;;;;;5091762;28;20032;-71
2021/09/10 10:56:26;;;;;;;6.30;3.97;;;24.50;99.90;;;;;;5091754;28;20362;-71
2021/09/10 10:59:11;;;;;;;11.88;4.18;;;24.50;99.90;;;;;;5091637;28;20036;-71
2021/09/10 11:02:21;;;;;;;5.97;4.05;;;24.70;99.90;;;;;;5091857;28;20040;-71
2021/09/10 11:05:08;;;;;;;10.52;7.40;;;24.50;99.90;;;;;;5090397;28;20024;-71
2021/09/10 11:07:34;;;;;;;5.85;3.78;;;24.00;99.90;;;;;;5090433;28;20046;-72
2021/09/10 11:10:09;;;;;;;6.32;4.05;;;24.40;99.90;;;;;;5090323;28;20432;-72
2021/09/10 11:12:38;;;;;;;6.45;4.47;;;24.40;99.90;;;;;;5091444;28;20044;-72
2021/09/10 11:15:32;;;;;;;7.05;4.53;;;24.60;99.90;;;;;;5073499;28;20044;-72
2021/09/10 11:18:12;;;;;;;7.10;4.28;;;24.70;99.90;;;;;;5091650;28;20032;-72
2021/09/10 11:20:46;;;;;;;8.03;4.90;;;25.00;99.90;;;;;;5090123;28;20028;-72
2021/09/10 11:23:16;;;;;;;7.07;4.80;;;25.40;99.90;;;;;;5091595;28;20321;-72
2021/09/10 11:25:44;;;;;;;7.25;4.93;;;25.80;99.80;;;;;;5090147;28;20067;-71
2021/09/10 11:28:11;;;;;;;10.13;4.47;;;25.80;99.60;;;;;;5091855;28;20028;-71
2021/09/10 11:30:37;;;;;;;6.03;4.38;;;25.80;99.70;;;;;;5074501;28;20388;-71
2021/09/10 11:33:03;;;;;;;8.07;4.88;;;25.50;99.80;;;;;;5095043;28;20472;-72
2021/09/10 11:35:35;;;;;;;8.27;4.47;;;25.70;99.30;;;;;;5093829;28;20121;-72
2021/09/10 11:38:04;;;;;;;6.30;4.75;;;26.00;99.10;;;;;;5093928;28;20028;-72
2021/09/10 11:40:39;;;;;;;7.38;5.32;;;26.30;98.90;;;;;;5093706;28;20028;-72
2021/09/10 11:43:16;;;;;;;5.93;4.95;;;25.50;99.90;;;;;;5094358;28;20191;-73
2021/09/10 11:45:49;;;;;;;8.63;4.75;;;25.40;99.90;;;;;;5094699;28;20031;-72
2021/09/10 11:48:26;;;;;;;12.45;4.80;;;25.90;99.50;;;;;;5093659;28;20032;-72
2021/09/10 11:51:07;;;;;;;6.38;4.55;;;25.90;99.20;;;;;;5093592;28;20044;-72
2021/09/10 11:53:35;;;;;;;6.65;5.13;;;26.10;99.10;;;;;;5094733;28;20039;-72
2021/09/10 11:56:07;;;;;;;6.63;4.97;;;26.10;98.40;;;;;;5093422;28;20118;-73
2021/09/10 11:58:47;;;;;;;6.97;4.32;;;26.30;98.30;;;;;;5094662;28;20060;-72
2021/09/10 12:01:26;;;;;;;7.60;4.77;;;26.30;98.10;;;;;;5094334;28;20036;-72
2021/09/10 12:03:59;;;;;;;7.07;4.63;;;26.60;98.20;;;;;;5092624;28;20131;-72
2021/09/10 12:06:33;;;;;;;6.65;4.50;;;26.80;98.30;;;;;;5094818;28;20033;-72
2021/09/10 12:09:16;;;;;;;6.28;4.00;;;27.10;97.80;;;;;;5094428;28;20123;-72
2021/09/10 12:12:16;;;;;;;7.35;4.32;;;27.20;97.00;;;;;;5094414;28;20059;-72
2021/09/10 12:14:50;;;;;;;7.40;4.83;;;27.60;96.10;;;;;;5093854;28;20484;-72
2021/09/10 12:17:27;;;;;;;10.00;5.07;;;26.80;97.10;;;;;;5093438;28;20377;-72
2021/09/10 12:20:30;;;;;;;7.97;4.53;;;26.30;97.90;;;;;;5094270;28;20475;-72
2021/09/10 12:22:59;;;;;;;7.43;4.93;;;25.70;98.60;;;;;;5092440;28;20040;-71
2021/09/10 12:25:45;;;;;;;7.55;4.95;;;25.60;99.20;;;;;;5092817;28;20567;-72
2021/09/10 12:28:42;;;;;;;7.25;4.90;;;25.20;99.60;;;;;;5093074;28;20082;-72
2021/09/10 12:31:09;;;;;;;8.60;4.65;;;25.30;99.70;;;;;;5091753;28;20070;-71
2021/09/10 12:33:42;;;;;;;9.50;4.80;;;25.00;99.90;;;;;;5093807;28;20437;-72
2021/09/10 12:36:10;;;;;;;6.32;4.70;;;24.70;99.90;;;;;;5093904;28;20031;-72
2021/09/10 12:38:38;;;;;;;6.88;5.03;;;24.80;99.90;;;;;;5092705;28;20064;-71
2021/09/10 12:41:06;;;;;;;10.07;5.28;;;24.90;99.90;;;;;;5093782;28;20032;-71
2021/09/10 12:43:32;;;;;;;7.72;4.82;;;25.00;99.90;;;;;;5092514;28;20481;-72
2021/09/10 12:45:58;;;;;;;6.50;4.82;;;24.90;99.90;;;;;;5093847;28;20107;-72
2021/09/10 12:48:24;;;;;;;11.80;5.93;;;24.50;99.90;;;;;;5092506;28;20115;-72
2021/09/10 12:50:51;;;;;;;9.07;5.20;;;24.70;99.90;;;;;;5092490;28;20124;-72